Time;durP1;ratioP1;P1;durP2;ratioP2;P2;SDS_P1;SDS_P2;PMS_P1;PMS_P2;Temp;Humidity;BMP_temperature;BMP_pressure;BME280_temperature;BME280_humidity;BME280_pressure;Samples;Min_cycle;Max_cycle;Signal;HPM_P1;HPM_P2
2022/06/02 00:02:42;;;;;;;7.22;3.97;;;;;;;;;;6275117;22;20030;-83
2022/06/02 00:05:24;;;;;;;9.27;3.95;;;;;;;;;;6275745;22;20020;-83
2022/06/02 00:08:24;;;;;;;5.90;3.65;;;;;;;;;;6276330;22;20020;-88
2022/06/02 00:11:06;;;;;;;6.10;3.75;;;;;;;;;;6276897;22;20026;-88
2022/06/02 00:13:48;;;;;;;5.80;3.67;;;;;;;;;;6276718;22;20015;-88
2022/06/02 00:16:25;;;;;;;6.85;4.15;;;;;;;;;;6275289;22;20023;-88
2022/06/02 00:19:05;;;;;;;6.78;4.05;;;;;;;;;;6276454;22;20069;-84
2022/06/02 00:22:30;;;;;;;6.10;3.70;;;;;;;;;;6276306;22;20012;-85
2022/06/02 00:25:34;;;;;;;10.23;4.47;;;;;;;;;;6277236;22;20020;-89
2022/06/02 00:28:40;;;;;;;7.70;3.47;;;;;;;;;;6263630;22;20132;-89
2022/06/02 00:31:45;;;;;;;8.27;3.92;;;;;;;;;;6241665;23;20047;-89
2022/06/02 00:53:24;;;;;;;5.82;3.83;;;;;;;;;;6233537;23;20084;-84
2022/06/02 00:59:20;;;;;;;6.50;3.70;;;;;;;;;;6229799;23;20069;-88
2022/06/02 01:02:03;;;;;;;6.60;4.15;;;;;;;;;;6214869;22;20031;-85
2022/06/02 01:04:40;;;;;;;7.22;4.60;;;;;;;;;;6276521;22;20016;-85
2022/06/02 01:07:53;;;;;;;8.20;4.88;;;;;;;;;;6276881;22;20097;-84
2022/06/02 01:10:53;;;;;;;7.95;4.55;;;;;;;;;;6275970;22;20023;-84
2022/06/02 01:13:41;;;;;;;7.40;4.43;;;;;;;;;;6277101;22;20019;-85
2022/06/02 01:16:16;;;;;;;13.13;5.32;;;;;;;;;;6276726;22;20073;-85
2022/06/02 01:19:00;;;;;;;8.65;4.70;;;;;;;;;;6278586;22;20062;-85
2022/06/02 01:22:03;;;;;;;9.43;5.07;;;;;;;;;;6278588;22;20394;-85
2022/06/02 01:24:59;;;;;;;8.10;4.75;;;;;;;;;;6277803;22;20503;-85
2022/06/02 01:28:17;;;;;;;10.18;4.80;;;;;;;;;;6277022;22;20351;-85
2022/06/02 01:31:14;;;;;;;9.45;4.97;;;;;;;;;;6277986;22;20098;-85
2022/06/02 01:37:09;;;;;;;9.07;5.40;;;;;;;;;;6278509;22;20102;-85
2022/06/02 01:40:36;;;;;;;10.13;4.80;;;;;;;;;;6278122;22;20011;-85
2022/06/02 01:43:17;;;;;;;10.73;5.13;;;;;;;;;;6278791;22;20470;-85
2022/06/02 01:45:57;;;;;;;8.02;4.80;;;;;;;;;;6278218;22;20455;-85
2022/06/02 01:48:33;;;;;;;7.28;4.63;;;;;;;;;;6278113;22;20019;-85
2022/06/02 01:51:19;;;;;;;10.23;5.68;;;;;;;;;;6277866;22;20016;-85
2022/06/02 01:54:29;;;;;;;8.02;4.88;;;;;;;;;;6276630;22;20042;-84
2022/06/02 01:57:12;;;;;;;7.63;4.97;;;;;;;;;;6251486;22;20035;-85
2022/06/02 02:00:13;;;;;;;9.65;5.68;;;;;;;;;;6277266;22;20011;-84
2022/06/02 02:03:04;;;;;;;7.68;4.78;;;;;;;;;;6277310;22;20031;-84
2022/06/02 02:06:06;;;;;;;9.00;5.40;;;;;;;;;;6277611;22;20015;-85
2022/06/02 02:09:02;;;;;;;7.40;5.00;;;;;;;;;;6277373;22;20384;-85
2022/06/02 02:11:48;;;;;;;9.32;4.88;;;;;;;;;;6240197;22;20038;-84
2022/06/02 02:15:03;;;;;;;8.23;5.05;;;;;;;;;;6277966;22;20016;-85
2022/06/02 02:17:48;;;;;;;9.30;5.30;;;;;;;;;;6277442;22;20019;-85
2022/06/02 02:20:21;;;;;;;8.52;5.25;;;;;;;;;;6277464;22;20073;-84
2022/06/02 02:23:03;;;;;;;8.63;5.18;;;;;;;;;;6277562;22;20043;-84
2022/06/02 02:25:44;;;;;;;8.30;5.10;;;;;;;;;;6269139;22;20094;-84
2022/06/02 02:28:22;;;;;;;10.73;5.93;;;;;;;;;;6276759;22;20025;-84
2022/06/02 02:31:33;;;;;;;20.88;6.55;;;;;;;;;;6277018;22;20016;-84
2022/06/02 02:34:23;;;;;;;10.05;4.47;;;;;;;;;;6277474;22;20118;-85
2022/06/02 02:37:02;;;;;;;8.68;5.13;;;;;;;;;;6278051;22;20085;-89
2022/06/02 02:40:19;;;;;;;8.27;5.22;;;;;;;;;;6265925;22;20047;-89
2022/06/02 02:43:10;;;;;;;7.63;4.65;;;;;;;;;;6166567;23;20081;-89
2022/06/02 02:45:46;;;;;;;10.27;5.50;;;;;;;;;;6127563;23;20059;-89
2022/06/02 02:48:57;;;;;;;8.68;4.88;;;;;;;;;;6153256;23;20456;-85
2022/06/02 02:51:43;;;;;;;10.32;5.30;;;;;;;;;;6152502;23;20018;-85
2022/06/02 02:54:56;;;;;;;9.52;4.90;;;;;;;;;;6153746;23;20065;-89
2022/06/02 02:57:49;;;;;;;9.45;5.45;;;;;;;;;;6138034;23;20030;-89
2022/06/02 03:00:37;;;;;;;9.90;5.53;;;;;;;;;;6113190;23;20025;-89
2022/06/02 03:03:36;;;;;;;7.88;5.05;;;;;;;;;;6152889;23;20029;-89
2022/06/02 03:06:24;;;;;;;8.30;4.60;;;;;;;;;;6142601;23;20120;-89
2022/06/02 03:10:00;;;;;;;9.63;5.18;;;;;;;;;;6152761;23;20025;-84
2022/06/02 03:12:44;;;;;;;9.07;5.07;;;;;;;;;;6152507;23;20032;-84
2022/06/02 03:15:19;;;;;;;6.93;4.47;;;;;;;;;;6151820;23;20468;-84
2022/06/02 03:18:10;;;;;;;11.18;4.55;;;;;;;;;;6152741;23;20025;-85
2022/06/02 03:20:37;;;;;;;8.35;4.65;;;;;;;;;;6276207;22;20024;-84
2022/06/02 03:24:14;;;;;;;10.70;4.97;;;;;;;;;;6277198;22;20024;-85
2022/06/02 03:27:01;;;;;;;8.20;4.93;;;;;;;;;;6182279;23;20432;-89
2022/06/02 03:30:19;;;;;;;11.77;5.20;;;;;;;;;;6182460;23;20063;-89
2022/06/02 03:33:25;;;;;;;8.98;5.20;;;;;;;;;;6183088;23;20515;-89
2022/06/02 03:36:35;;;;;;;12.65;4.93;;;;;;;;;;6147728;23;20472;-88
2022/06/02 03:39:28;;;;;;;10.25;5.57;;;;;;;;;;6146806;23;20380;-88
2022/06/02 03:42:21;;;;;;;10.55;5.45;;;;;;;;;;6180804;23;20057;-88
2022/06/02 03:45:08;;;;;;;7.50;4.75;;;;;;;;;;6181905;23;20021;-88
2022/06/02 03:47:55;;;;;;;11.38;5.35;;;;;;;;;;6182140;23;20075;-85
2022/06/02 03:50:44;;;;;;;11.98;5.70;;;;;;;;;;6193062;22;20067;-84
2022/06/02 03:54:11;;;;;;;14.07;5.63;;;;;;;;;;6276557;22;20371;-84
2022/06/02 03:56:59;;;;;;;10.32;5.93;;;;;;;;;;6276752;22;20077;-85
2022/06/02 03:59:55;;;;;;;8.80;5.57;;;;;;;;;;6275825;22;20462;-85
2022/06/02 04:02:31;;;;;;;11.00;5.55;;;;;;;;;;6276253;22;20030;-84
2022/06/02 04:05:08;;;;;;;8.82;5.57;;;;;;;;;;6249599;22;20561;-90
2022/06/02 04:09:41;;;;;;;10.82;5.45;;;;;;;;;;6231886;23;20531;-90
2022/06/02 04:14:27;;;;;;;10.60;5.90;;;;;;;;;;6201098;23;20469;-90
2022/06/02 04:18:51;;;;;;;8.82;5.20;;;;;;;;;;6111730;23;20071;-90
2022/06/02 04:22:19;;;;;;;9.43;5.28;;;;;;;;;;6122438;23;20025;-85
2022/06/02 04:25:55;;;;;;;9.60;5.93;;;;;;;;;;6122460;23;20142;-90
2022/06/02 04:29:30;;;;;;;10.55;6.00;;;;;;;;;;6088727;23;20028;-90
2022/06/02 04:33:38;;;;;;;13.32;6.82;;;;;;;;;;6112438;23;20410;-89
2022/06/02 04:47:04;;;;;;;17.48;7.68;;;;;;;;;;6007355;23;20031;-92
2022/06/02 04:49:41;;;;;;;;;;;;;;;;;;6021119;23;20133;-84
2022/06/02 04:59:08;;;;;;;15.55;8.48;;;;;;;;;;6042145;23;20995;-89
2022/06/02 05:02:32;;;;;;;15.38;8.68;;;;;;;;;;6065691;23;20035;-89
2022/06/02 05:05:17;;;;;;;13.40;7.90;;;;;;;;;;6002715;23;20031;-89
2022/06/02 05:08:24;;;;;;;19.92;9.02;;;;;;;;;;6028100;23;20486;-89
2022/06/02 05:11:03;;;;;;;15.02;8.10;;;;;;;;;;6094944;23;20132;-84
2022/06/02 05:13:56;;;;;;;13.52;7.78;;;;;;;;;;6099829;23;20101;-85
2022/06/02 05:16:34;;;;;;;14.98;7.97;;;;;;;;;;6154117;23;20029;-84
2022/06/02 05:19:21;;;;;;;12.30;7.40;;;;;;;;;;6154264;23;20026;-85
2022/06/02 05:22:10;;;;;;;13.93;7.75;;;;;;;;;;6154086;23;20040;-84
2022/06/02 05:24:48;;;;;;;13.70;7.80;;;;;;;;;;6154109;23;20476;-85
2022/06/02 05:27:46;;;;;;;14.27;7.78;;;;;;;;;;6154542;23;20056;-85
2022/06/02 05:31:05;;;;;;;16.58;8.15;;;;;;;;;;6154439;23;20360;-84
2022/06/02 05:33:58;;;;;;;13.50;7.22;;;;;;;;;;6181210;23;20109;-83
2022/06/02 05:36:58;;;;;;;12.40;7.50;;;;;;;;;;6270111;22;20020;-83
2022/06/02 05:40:20;;;;;;;14.15;7.50;;;;;;;;;;6278828;22;20034;-83
2022/06/02 05:43:06;;;;;;;17.73;7.05;;;;;;;;;;6271205;22;20114;-82
2022/06/02 05:45:56;;;;;;;14.90;7.07;;;;;;;;;;6282428;22;20019;-82
2022/06/02 05:48:34;;;;;;;10.65;5.90;;;;;;;;;;6280167;22;20577;-83
2022/06/02 05:51:10;;;;;;;13.07;6.30;;;;;;;;;;6282695;22;20027;-83
2022/06/02 05:53:50;;;;;;;14.75;6.57;;;;;;;;;;6283672;22;20020;-82
2022/06/02 05:56:26;;;;;;;9.50;5.50;;;;;;;;;;6283177;22;20050;-82
2022/06/02 05:59:37;;;;;;;11.68;5.22;;;;;;;;;;6256429;22;20019;-83
2022/06/02 06:02:50;;;;;;;;;;;;;;;;;;6247478;22;20027;-82
2022/06/02 06:05:45;;;;;;;9.95;5.00;;;;;;;;;;6273103;22;20006;-82
2022/06/02 06:08:38;;;;;;;10.82;4.72;;;;;;;;;;6275758;22;20027;-82
2022/06/02 06:11:44;;;;;;;10.90;5.00;;;;;;;;;;6249924;22;20024;-83
2022/06/02 06:18:13;;;;;;;9.90;4.80;;;;;;;;;;6162745;23;20639;-83
2022/06/02 06:21:12;;;;;;;9.98;4.55;;;;;;;;;;6160134;23;20052;-82
2022/06/02 06:24:13;;;;;;;15.18;5.18;;;;;;;;;;6161454;23;20045;-83
2022/06/02 06:27:00;;;;;;;6.78;4.25;;;;;;;;;;6160736;23;20025;-83
2022/06/02 06:29:59;;;;;;;8.82;4.82;;;;;;;;;;6159850;23;20032;-83
2022/06/02 06:32:55;;;;;;;8.45;4.18;;;;;;;;;;6154014;23;20076;-83
2022/06/02 06:35:45;;;;;;;9.02;5.00;;;;;;;;;;6160571;23;20025;-82
2022/06/02 06:38:45;;;;;;;9.32;4.22;;;;;;;;;;6148599;23;20119;-82
2022/06/02 06:41:30;;;;;;;10.48;4.00;;;;;;;;;;6156431;23;20029;-84
2022/06/02 06:44:15;;;;;;;8.13;4.18;;;;;;;;;;6152391;23;20025;-85
2022/06/02 06:47:04;;;;;;;7.32;4.55;;;;;;;;;;6151644;23;20101;-85
2022/06/02 06:49:50;;;;;;;11.73;4.30;;;;;;;;;;6128365;23;20044;-85
2022/06/02 06:53:02;;;;;;;8.40;4.13;;;;;;;;;;6277115;22;20047;-85
2022/06/02 06:56:01;;;;;;;9.73;3.95;;;;;;;;;;6276500;22;20078;-85
2022/06/02 06:58:38;;;;;;;10.82;3.72;;;;;;;;;;6275104;22;20027;-84
2022/06/02 07:01:26;;;;;;;7.65;3.80;;;;;;;;;;6263615;22;20051;-84
2022/06/02 07:04:28;;;;;;;6.97;4.20;;;;;;;;;;6276901;22;20493;-84
2022/06/02 07:07:09;;;;;;;6.53;3.53;;;;;;;;;;6276429;22;20098;-85
2022/06/02 07:09:44;;;;;;;8.05;4.07;;;;;;;;;;6276930;22;20042;-84
2022/06/02 07:12:51;;;;;;;7.80;4.05;;;;;;;;;;6275225;22;20030;-85
2022/06/02 07:15:40;;;;;;;9.27;4.18;;;;;;;;;;6123355;23;20061;-84
2022/06/02 07:18:26;;;;;;;6.47;3.35;;;;;;;;;;6122000;23;20113;-85
2022/06/02 07:21:08;;;;;;;7.90;3.45;;;;;;;;;;6122596;23;20825;-84
2022/06/02 07:23:53;;;;;;;7.10;3.47;;;;;;;;;;6121608;23;20105;-84
2022/06/02 07:29:51;;;;;;;7.22;3.80;;;;;;;;;;6122018;23;20036;-84
2022/06/02 07:32:22;;;;;;;6.30;3.47;;;;;;;;;;6121060;23;20030;-84
2022/06/02 07:35:28;;;;;;;7.10;3.42;;;;;;;;;;6121937;23;20116;-84
2022/06/02 07:38:28;;;;;;;6.25;3.58;;;;;;;;;;6120997;23;20088;-84
2022/06/02 07:41:07;;;;;;;9.13;3.63;;;;;;;;;;6122562;23;20026;-84
2022/06/02 07:44:26;;;;;;;7.10;3.28;;;;;;;;;;6123543;23;20037;-84
2022/06/02 07:47:40;;;;;;;11.40;3.55;;;;;;;;;;6122258;23;20132;-84
2022/06/02 07:50:24;;;;;;;9.00;4.05;;;;;;;;;;6093529;23;20026;-84
2022/06/02 07:53:09;;;;;;;6.68;3.97;;;;;;;;;;6151949;23;20029;-85
2022/06/02 07:56:02;;;;;;;8.55;3.75;;;;;;;;;;6151659;23;20738;-84
2022/06/02 07:58:40;;;;;;;5.72;3.08;;;;;;;;;;6127584;23;20021;-84
2022/06/02 08:01:16;;;;;;;7.40;3.33;;;;;;;;;;6150854;23;20124;-84
2022/06/02 08:03:44;;;;;;;6.18;3.58;;;;;;;;;;6151067;23;20901;-84
2022/06/02 08:06:34;;;;;;;7.13;3.58;;;;;;;;;;6151054;23;20017;-84
2022/06/02 08:09:45;;;;;;;9.65;3.70;;;;;;;;;;6150878;23;20013;-84
2022/06/02 08:12:42;;;;;;;7.07;3.58;;;;;;;;;;6153198;23;20045;-84
2022/06/02 08:15:44;;;;;;;8.68;3.70;;;;;;;;;;6152408;23;20021;-84
2022/06/02 08:18:55;;;;;;;7.25;3.40;;;;;;;;;;6150607;23;20021;-84
2022/06/02 08:21:45;;;;;;;7.68;3.55;;;;;;;;;;6064451;23;20082;-84
2022/06/02 08:24:33;;;;;;;7.22;3.67;;;;;;;;;;6064378;23;20030;-84
2022/06/02 08:27:34;;;;;;;6.20;3.33;;;;;;;;;;6101404;23;20037;-84
2022/06/02 08:30:05;;;;;;;7.20;3.60;;;;;;;;;;6122426;23;20446;-84
2022/06/02 08:32:46;;;;;;;6.18;3.63;;;;;;;;;;6121589;23;20037;-84
2022/06/02 08:35:26;;;;;;;8.15;3.72;;;;;;;;;;6121432;23;20105;-84
2022/06/02 08:38:49;;;;;;;6.53;3.50;;;;;;;;;;6121996;23;20193;-84
2022/06/02 08:41:49;;;;;;;9.60;4.03;;;;;;;;;;6034894;23;20023;-84
2022/06/02 08:44:46;;;;;;;6.35;3.90;;;;;;;;;;6035408;23;20027;-84
2022/06/02 08:47:34;;;;;;;5.18;3.33;;;;;;;;;;6035437;23;20054;-84
2022/06/02 08:50:34;;;;;;;8.32;3.95;;;;;;;;;;6035948;23;20114;-84
2022/06/02 08:53:55;;;;;;;6.72;3.72;;;;;;;;;;6035158;23;20090;-84
2022/06/02 08:56:43;;;;;;;13.07;4.68;;;;;;;;;;6034835;23;20033;-84
2022/06/02 08:59:29;;;;;;;6.68;3.78;;;;;;;;;;6145748;23;20053;-84
2022/06/02 09:02:41;;;;;;;6.97;3.75;;;;;;;;;;6150582;23;20473;-84
2022/06/02 09:05:39;;;;;;;6.93;3.60;;;;;;;;;;6151536;23;20536;-84
2022/06/02 09:08:12;;;;;;;9.65;3.33;;;;;;;;;;6150261;23;20109;-84
2022/06/02 09:11:01;;;;;;;6.57;3.90;;;;;;;;;;6151824;23;20026;-84
2022/06/02 09:14:10;;;;;;;5.18;2.67;;;;;;;;;;6151268;23;20029;-84
2022/06/02 09:17:07;;;;;;;7.63;2.60;;;;;;;;;;6275151;22;20061;-84
2022/06/02 09:20:16;;;;;;;5.57;2.53;;;;;;;;;;6242400;22;20467;-84
2022/06/02 09:23:03;;;;;;;5.82;2.45;;;;;;;;;;6275888;22;20025;-84
2022/06/02 09:25:50;;;;;;;3.70;1.85;;;;;;;;;;6274404;22;20069;-84
2022/06/02 09:28:38;;;;;;;8.60;2.60;;;;;;;;;;6276175;22;20024;-84
2022/06/02 09:31:33;;;;;;;5.32;2.40;;;;;;;;;;6274755;22;20030;-84
2022/06/02 09:35:24;;;;;;;18.75;3.33;;;;;;;;;;6277041;22;20517;-84
2022/06/02 09:38:28;;;;;;;5.40;2.42;;;;;;;;;;6123166;23;20482;-84
2022/06/02 09:41:12;;;;;;;10.65;2.13;;;;;;;;;;6124304;23;20033;-84
2022/06/02 09:44:00;;;;;;;10.88;2.10;;;;;;;;;;6123867;23;20040;-84
2022/06/02 09:46:54;;;;;;;7.53;2.10;;;;;;;;;;6124049;23;20461;-84
2022/06/02 09:50:02;;;;;;;6.72;2.03;;;;;;;;;;6122756;23;20096;-84
2022/06/02 09:52:52;;;;;;;11.57;2.45;;;;;;;;;;6122510;23;20173;-84
2022/06/02 09:55:45;;;;;;;5.80;2.05;;;;;;;;;;6116636;23;20109;-84
2022/06/02 09:58:20;;;;;;;3.25;1.83;;;;;;;;;;6124609;23;20026;-85
2022/06/02 10:01:11;;;;;;;11.63;2.70;;;;;;;;;;6124201;23;20065;-85
2022/06/02 10:04:15;;;;;;;8.30;2.13;;;;;;;;;;6124973;23;20463;-84
2022/06/02 10:07:06;;;;;;;3.72;2.00;;;;;;;;;;6123706;23;20481;-84
2022/06/02 10:09:59;;;;;;;6.07;2.10;;;;;;;;;;6257804;22;20738;-84
2022/06/02 10:12:55;;;;;;;5.28;1.90;;;;;;;;;;6277416;22;20039;-84
2022/06/02 10:15:43;;;;;;;6.72;2.10;;;;;;;;;;6277709;22;20396;-84
2022/06/02 10:18:34;;;;;;;5.68;2.05;;;;;;;;;;6277296;22;20028;-84
2022/06/02 10:21:16;;;;;;;9.02;2.13;;;;;;;;;;6124124;23;20032;-84
2022/06/02 10:24:23;;;;;;;8.88;1.95;;;;;;;;;;6126469;23;20081;-84
2022/06/02 10:27:10;;;;;;;7.63;2.00;;;;;;;;;;6124790;23;20032;-84
2022/06/02 10:30:06;;;;;;;5.38;1.95;;;;;;;;;;6124596;23;20033;-85
2022/06/02 10:33:19;;;;;;;4.03;1.88;;;;;;;;;;6124600;23;20477;-84
2022/06/02 10:36:21;;;;;;;6.45;1.98;;;;;;;;;;6124611;23;20053;-84
2022/06/02 10:39:25;;;;;;;3.67;1.83;;;;;;;;;;6124566;23;20029;-84
2022/06/02 10:42:08;;;;;;;5.10;1.88;;;;;;;;;;6125412;23;20030;-84
2022/06/02 10:44:58;;;;;;;5.22;2.10;;;;;;;;;;6126435;23;20087;-84
2022/06/02 10:51:07;;;;;;;5.03;2.08;;;;;;;;;;6125522;23;20471;-84
2022/06/02 10:54:13;;;;;;;3.40;1.80;;;;;;;;;;6126226;23;20436;-84
2022/06/02 10:57:36;;;;;;;8.38;2.20;;;;;;;;;;6132491;22;20014;-84
2022/06/02 11:00:42;;;;;;;7.28;1.98;;;;;;;;;;6279557;22;20011;-84
2022/06/02 11:03:47;;;;;;;6.03;1.70;;;;;;;;;;6278395;22;20130;-84
2022/06/02 11:06:52;;;;;;;6.53;1.90;;;;;;;;;;6278886;22;20443;-84
2022/06/02 11:09:57;;;;;;;5.82;1.45;;;;;;;;;;6278122;22;20019;-84
2022/06/02 11:12:49;;;;;;;6.03;2.22;;;;;;;;;;6278187;22;20046;-85
2022/06/02 11:15:55;;;;;;;4.88;1.85;;;;;;;;;;6277612;22;20451;-84
2022/06/02 11:19:01;;;;;;;5.70;1.90;;;;;;;;;;6277433;22;20035;-84
2022/06/02 11:22:05;;;;;;;6.03;1.83;;;;;;;;;;6276860;22;20018;-85
2022/06/02 11:25:05;;;;;;;7.78;1.88;;;;;;;;;;6277531;22;20027;-85
2022/06/02 11:27:57;;;;;;;4.93;1.70;;;;;;;;;;6276550;22;20023;-84
2022/06/02 11:30:55;;;;;;;4.70;1.90;;;;;;;;;;6265363;22;20414;-85
2022/06/02 11:33:48;;;;;;;9.63;2.00;;;;;;;;;;6276662;22;20028;-84
2022/06/02 11:36:46;;;;;;;4.07;1.90;;;;;;;;;;6277948;22;20435;-85
2022/06/02 11:39:32;;;;;;;7.30;3.60;;;;;;;;;;6278196;22;20073;-85
2022/06/02 11:42:12;;;;;;;4.20;1.85;;;;;;;;;;6278705;22;20019;-84
2022/06/02 11:44:53;;;;;;;7.07;2.03;;;;;;;;;;6277807;22;20024;-84
2022/06/02 11:47:53;;;;;;;4.82;1.95;;;;;;;;;;6274933;22;20019;-84
2022/06/02 11:50:49;;;;;;;5.72;1.83;;;;;;;;;;6154863;23;20026;-84
2022/06/02 11:53:39;;;;;;;8.82;2.03;;;;;;;;;;6155997;23;20029;-84
2022/06/02 11:56:11;;;;;;;5.57;1.50;;;;;;;;;;6154494;23;20032;-84
2022/06/02 11:59:05;;;;;;;4.72;1.67;;;;;;;;;;6155196;23;20092;-84
2022/06/02 12:01:51;;;;;;;3.33;1.50;;;;;;;;;;6154218;23;20493;-84
2022/06/02 12:04:38;;;;;;;3.55;1.50;;;;;;;;;;6155932;23;20032;-84
2022/06/02 12:07:30;;;;;;;5.00;1.60;;;;;;;;;;6154103;23;20017;-84
2022/06/02 12:10:29;;;;;;;4.72;2.10;;;;;;;;;;6154733;23;20108;-84
2022/06/02 12:13:25;;;;;;;4.95;1.83;;;;;;;;;;6158496;23;20057;-84
2022/06/02 12:16:05;;;;;;;7.38;1.92;;;;;;;;;;6146558;23;20113;-84
2022/06/02 12:18:59;;;;;;;10.95;1.60;;;;;;;;;;6154280;23;20057;-84
2022/06/02 12:21:34;;;;;;;3.55;1.60;;;;;;;;;;6155409;23;20061;-84
2022/06/02 12:24:21;;;;;;;5.72;1.90;;;;;;;;;;6153162;23;20528;-83
2022/06/02 12:27:17;;;;;;;3.95;1.70;;;;;;;;;;6185058;22;20027;-84
2022/06/02 12:30:04;;;;;;;7.55;1.75;;;;;;;;;;6282055;22;20019;-83
2022/06/02 12:33:13;;;;;;;4.72;1.77;;;;;;;;;;6280591;22;20355;-83
2022/06/02 12:35:53;;;;;;;3.38;1.70;;;;;;;;;;6281748;22;20020;-83
2022/06/02 12:38:43;;;;;;;6.00;1.40;;;;;;;;;;6279573;22;20043;-82
2022/06/02 12:41:25;;;;;;;5.32;1.42;;;;;;;;;;6280816;22;20038;-82
2022/06/02 12:44:47;;;;;;;7.82;2.58;;;;;;;;;;6280448;22;20020;-82
2022/06/02 12:47:50;;;;;;;6.50;1.67;;;;;;;;;;6123846;23;20077;-84
2022/06/02 12:50:35;;;;;;;6.95;2.05;;;;;;;;;;6127702;23;20389;-84
2022/06/02 12:54:07;;;;;;;4.07;1.90;;;;;;;;;;6119612;23;20092;-83
2022/06/02 12:56:42;;;;;;;6.60;1.70;;;;;;;;;;6099515;23;20042;-82
2022/06/02 12:59:36;;;;;;;4.65;1.50;;;;;;;;;;6100417;23;20090;-83
2022/06/02 13:02:27;;;;;;;8.48;1.50;;;;;;;;;;6097659;23;20026;-83
2022/06/02 13:05:22;;;;;;;4.25;1.58;;;;;;;;;;6095977;23;20042;-83
2022/06/02 13:07:55;;;;;;;3.80;1.50;;;;;;;;;;6084774;23;20087;-83
2022/06/02 13:11:02;;;;;;;3.40;1.40;;;;;;;;;;6098617;23;20120;-83
2022/06/02 13:13:53;;;;;;;8.30;1.70;;;;;;;;;;6099544;23;20054;-83
2022/06/02 13:16:37;;;;;;;4.93;1.52;;;;;;;;;;6098969;23;20022;-83
2022/06/02 13:19:48;;;;;;;8.20;2.10;;;;;;;;;;6096864;23;20030;-84
2022/06/02 13:22:50;;;;;;;6.47;1.57;;;;;;;;;;6156543;23;20096;-83
2022/06/02 13:26:16;;;;;;;3.53;1.27;;;;;;;;;;6157045;23;20488;-83
2022/06/02 13:29:25;;;;;;;5.75;1.42;;;;;;;;;;6155873;23;20029;-83
2022/06/02 13:32:34;;;;;;;3.00;1.58;;;;;;;;;;6125430;23;20144;-83
2022/06/02 13:35:38;;;;;;;5.07;1.60;;;;;;;;;;6156451;23;20032;-82
2022/06/02 13:38:24;;;;;;;5.15;1.70;;;;;;;;;;6156214;23;20021;-83
2022/06/02 13:41:06;;;;;;;5.47;1.52;;;;;;;;;;6155569;23;20032;-83
2022/06/02 13:44:05;;;;;;;6.28;1.40;;;;;;;;;;6155919;23;20496;-82
2022/06/02 13:47:03;;;;;;;5.10;1.65;;;;;;;;;;6154667;23;20021;-83
2022/06/02 13:49:37;;;;;;;2.35;1.30;;;;;;;;;;6145164;23;20036;-83
2022/06/02 13:52:40;;;;;;;5.82;1.85;;;;;;;;;;6154206;23;20092;-83
2022/06/02 13:59:09;;;;;;;3.73;1.20;;;;;;;;;;6153175;23;20037;-83
2022/06/02 14:01:49;;;;;;;6.78;1.48;;;;;;;;;;6152678;23;20279;-83
2022/06/02 14:04:39;;;;;;;6.07;1.30;;;;;;;;;;6151802;23;20461;-83
2022/06/02 14:07:33;;;;;;;5.32;1.40;;;;;;;;;;6143463;23;20026;-83
2022/06/02 14:10:47;;;;;;;4.15;1.40;;;;;;;;;;6278460;22;20071;-83
2022/06/02 14:13:24;;;;;;;3.05;1.30;;;;;;;;;;6277981;22;20024;-83
2022/06/02 14:16:20;;;;;;;3.45;1.30;;;;;;;;;;6278347;22;20027;-83
2022/06/02 14:19:29;;;;;;;5.22;1.65;;;;;;;;;;6276076;22;20086;-84
2022/06/02 14:22:48;;;;;;;5.78;1.23;;;;;;;;;;6278000;22;20023;-84
2022/06/02 14:26:01;;;;;;;5.38;1.65;;;;;;;;;;6277702;22;20026;-83
2022/06/02 14:29:04;;;;;;;6.22;1.33;;;;;;;;;;6277270;22;20018;-84
2022/06/02 14:31:58;;;;;;;3.70;1.45;;;;;;;;;;6278538;22;20024;-83
2022/06/02 14:34:37;;;;;;;6.20;1.25;;;;;;;;;;6279089;22;20503;-84
2022/06/02 14:37:18;;;;;;;2.47;1.17;;;;;;;;;;6276809;22;20031;-83
2022/06/02 14:39:56;;;;;;;5.95;1.60;;;;;;;;;;6240331;22;20028;-83
2022/06/02 14:43:03;;;;;;;4.00;1.58;;;;;;;;;;6276723;22;20077;-83
2022/06/02 14:46:00;;;;;;;9.75;1.75;;;;;;;;;;6277733;22;20030;-83
2022/06/02 14:48:36;;;;;;;3.22;1.17;;;;;;;;;;6267157;22;20404;-83
2022/06/02 14:51:25;;;;;;;4.78;1.20;;;;;;;;;;6278966;22;20118;-82
2022/06/02 14:54:13;;;;;;;5.47;1.48;;;;;;;;;;6275053;22;20538;-82
2022/06/02 14:56:47;;;;;;;6.97;2.58;;;;;;;;;;6239461;22;20419;-82
2022/06/02 14:59:43;;;;;;;4.38;1.40;;;;;;;;;;6278770;22;20063;-83
2022/06/02 15:02:39;;;;;;;7.15;1.60;;;;;;;;;;6275462;22;20026;-84
2022/06/02 15:05:21;;;;;;;7.38;1.63;;;;;;;;;;6277289;22;20016;-84
2022/06/02 15:08:27;;;;;;;7.28;1.50;;;;;;;;;;6275987;22;20016;-83
2022/06/02 15:10:55;;;;;;;6.80;1.30;;;;;;;;;;6276545;22;20118;-83
2022/06/02 15:13:55;;;;;;;4.22;1.30;;;;;;;;;;6277328;22;20046;-83
2022/06/02 15:16:46;;;;;;;5.25;1.35;;;;;;;;;;6153116;23;20029;-83
2022/06/02 15:19:27;;;;;;;3.45;1.17;;;;;;;;;;6153266;23;20108;-83
2022/06/02 15:23:07;;;;;;;3.15;1.35;;;;;;;;;;6151774;23;20033;-83
2022/06/02 15:26:35;;;;;;;2.70;1.10;;;;;;;;;;6151470;23;20102;-83
2022/06/02 15:30:00;;;;;;;3.85;1.40;;;;;;;;;;6153931;23;20091;-84
2022/06/02 15:33:09;;;;;;;4.05;1.35;;;;;;;;;;6152579;23;20111;-84
2022/06/02 15:36:41;;;;;;;4.93;1.58;;;;;;;;;;6152480;23;20041;-84
2022/06/02 15:39:49;;;;;;;7.15;1.65;;;;;;;;;;6140275;23;20520;-85
2022/06/02 15:43:28;;;;;;;6.25;1.20;;;;;;;;;;6152240;23;20536;-84
2022/06/02 15:47:04;;;;;;;5.72;1.20;;;;;;;;;;6153078;23;20225;-85
2022/06/02 15:50:18;;;;;;;7.72;1.25;;;;;;;;;;6152265;23;20570;-84
2022/06/02 15:53:22;;;;;;;3.42;1.40;;;;;;;;;;6214181;22;20312;-87
2022/06/02 15:56:51;;;;;;;4.47;1.55;;;;;;;;;;6277195;22;20037;-88
2022/06/02 16:00:06;;;;;;;4.47;1.33;;;;;;;;;;6275672;22;20524;-85
2022/06/02 16:03:25;;;;;;;3.28;1.15;;;;;;;;;;6273229;22;20035;-85
2022/06/02 16:06:31;;;;;;;5.95;1.42;;;;;;;;;;6277197;22;20069;-85
2022/06/02 16:13:06;;;;;;;3.65;1.17;;;;;;;;;;6276932;22;20181;-84
2022/06/02 16:16:02;;;;;;;4.75;1.60;;;;;;;;;;6277612;22;20098;-84
2022/06/02 16:19:30;;;;;;;7.80;1.70;;;;;;;;;;6277242;22;20027;-84
2022/06/02 16:22:42;;;;;;;6.20;1.50;;;;;;;;;;6277121;22;20022;-84
2022/06/02 16:25:41;;;;;;;4.63;1.35;;;;;;;;;;6278548;22;20377;-86
2022/06/02 16:28:24;;;;;;;6.15;1.42;;;;;;;;;;6277876;22;20116;-86
2022/06/02 16:31:12;;;;;;;7.47;1.10;;;;;;;;;;6277968;22;20027;-84
2022/06/02 16:33:57;;;;;;;2.75;1.20;;;;;;;;;;6277696;22;20043;-84
2022/06/02 16:37:19;;;;;;;5.65;1.50;;;;;;;;;;6275817;22;20528;-84
2022/06/02 16:40:02;;;;;;;6.78;1.40;;;;;;;;;;6151664;23;20029;-84
2022/06/02 16:42:38;;;;;;;7.38;1.73;;;;;;;;;;6129106;23;20030;-84
2022/06/02 16:46:10;;;;;;;6.97;1.40;;;;;;;;;;6158357;23;20025;-84
2022/06/02 16:48:55;;;;;;;3.90;1.40;;;;;;;;;;6119725;23;20033;-85
2022/06/02 16:51:36;;;;;;;5.45;1.35;;;;;;;;;;6099241;23;20030;-84
2022/06/02 16:54:12;;;;;;;4.93;1.20;;;;;;;;;;6097657;23;20054;-84
2022/06/02 16:57:01;;;;;;;5.00;1.10;;;;;;;;;;6095683;23;20232;-85
2022/06/02 16:59:56;;;;;;;7.18;1.40;;;;;;;;;;6097372;23;20034;-84
2022/06/02 17:02:25;;;;;;;3.08;1.10;;;;;;;;;;6089106;23;20046;-83
2022/06/02 17:05:19;;;;;;;7.15;1.40;;;;;;;;;;6095320;23;20037;-84
2022/06/02 17:08:25;;;;;;;7.53;1.50;;;;;;;;;;6095072;23;20054;-83
2022/06/02 17:11:17;;;;;;;7.38;1.75;;;;;;;;;;6094667;23;20374;-84
2022/06/02 17:14:22;;;;;;;4.57;1.92;;;;;;;;;;6146671;23;20040;-84
2022/06/02 17:17:16;;;;;;;5.45;1.70;;;;;;;;;;6182852;23;20039;-84
2022/06/02 17:19:50;;;;;;;3.55;1.40;;;;;;;;;;6184145;23;20048;-84
2022/06/02 17:22:25;;;;;;;6.63;1.55;;;;;;;;;;6184126;23;20056;-84
2022/06/02 17:25:08;;;;;;;5.72;1.58;;;;;;;;;;6175833;23;20100;-83
2022/06/02 17:27:52;;;;;;;6.90;1.60;;;;;;;;;;6183659;23;20061;-83
2022/06/02 17:30:53;;;;;;;3.38;1.40;;;;;;;;;;6187262;23;20180;-83
2022/06/02 17:34:10;;;;;;;6.78;1.48;;;;;;;;;;6188207;23;20039;-83
2022/06/02 17:36:51;;;;;;;5.15;1.40;;;;;;;;;;6190544;23;20583;-83
2022/06/02 17:39:28;;;;;;;4.13;1.50;;;;;;;;;;6187357;23;20607;-84
2022/06/02 17:42:36;;;;;;;6.53;1.80;;;;;;;;;;6155345;23;20177;-83
2022/06/02 17:45:18;;;;;;;5.82;1.50;;;;;;;;;;6154824;23;20049;-84
2022/06/02 17:48:29;;;;;;;5.50;1.98;;;;;;;;;;6156548;23;20022;-83
2022/06/02 17:51:34;;;;;;;7.65;2.53;;;;;;;;;;6149896;23;20115;-83
2022/06/02 17:54:36;;;;;;;8.40;2.20;;;;;;;;;;6208953;23;20044;-83
2022/06/02 17:57:09;;;;;;;10.75;2.63;;;;;;;;;;6219646;23;20024;-82
2022/06/02 17:59:58;;;;;;;4.65;1.88;;;;;;;;;;6217529;23;20029;-83
2022/06/02 18:02:46;;;;;;;3.97;1.55;;;;;;;;;;6214389;23;20099;-83
2022/06/02 18:05:49;;;;;;;4.82;1.63;;;;;;;;;;6159001;23;20113;-83
2022/06/02 18:08:55;;;;;;;6.13;1.80;;;;;;;;;;6157313;23;20031;-83
2022/06/02 18:11:43;;;;;;;7.25;2.17;;;;;;;;;;6099011;23;20036;-85
2022/06/02 18:14:56;;;;;;;7.55;2.40;;;;;;;;;;6095925;23;20038;-83
2022/06/02 18:17:58;;;;;;;5.05;1.80;;;;;;;;;;6096340;23;20526;-83
2022/06/02 18:20:52;;;;;;;3.60;1.60;;;;;;;;;;6033156;23;20769;-84
2022/06/02 18:23:46;;;;;;;5.53;1.63;;;;;;;;;;6009302;23;20043;-83
2022/06/02 18:26:21;;;;;;;3.85;1.48;;;;;;;;;;6009611;23;20291;-83
2022/06/02 18:29:08;;;;;;;7.00;2.63;;;;;;;;;;6010494;23;20103;-84
2022/06/02 18:31:55;;;;;;;5.20;1.75;;;;;;;;;;6009682;23;20292;-83
2022/06/02 18:34:33;;;;;;;3.63;1.55;;;;;;;;;;6010605;23;20027;-83